Time;durP1;ratioP1;P1;durP2;ratioP2;P2;SDS_P1;SDS_P2;PMS_P1;PMS_P2;Temp;Humidity;BMP_temperature;BMP_pressure;BME280_temperature;BME280_humidity;BME280_pressure;Samples;Min_cycle;Max_cycle;Signal;HPM_P1;HPM_P2
2022/01/02 00:00:33;;;;;;;;;20.25;18.75;;;;;;;;5122099;27;12412;-73
2022/01/02 00:03:01;;;;;;;;;23.50;17.75;;;;;;;;5140278;27;12703;-72
2022/01/02 00:05:29;;;;;;;;;29.00;25.00;;;;;;;;5140722;27;11416;-72
2022/01/02 00:08:02;;;;;;;;;25.75;24.75;;;;;;;;5140912;27;12477;-72
2022/01/02 00:10:30;;;;;;;;;23.50;21.25;;;;;;;;5140072;27;11653;-72
2022/01/02 00:12:59;;;;;;;;;29.25;24.50;;;;;;;;5140756;27;11509;-71
2022/01/02 00:15:25;;;;;;;;;27.75;25.75;;;;;;;;5140496;27;11750;-72
2022/01/02 00:17:51;;;;;;;;;28.00;25.25;;;;;;;;5140622;27;12146;-72
2022/01/02 00:20:33;;;;;;;;;27.25;23.25;;;;;;;;5140150;27;11029;-72
2022/01/02 00:23:07;;;;;;;;;25.00;21.75;;;;;;;;5140637;27;11610;-72
2022/01/02 00:25:37;;;;;;;;;23.75;23.75;;;;;;;;5141177;27;11490;-72
2022/01/02 00:28:02;;;;;;;;;22.25;22.00;;;;;;;;5139675;27;11820;-72
2022/01/02 00:30:27;;;;;;;;;25.50;21.50;;;;;;;;5139919;27;11577;-71
2022/01/02 00:32:53;;;;;;;;;21.75;20.25;;;;;;;;5140682;27;11680;-72
2022/01/02 00:35:18;;;;;;;;;24.00;18.75;;;;;;;;5141207;27;11657;-72
2022/01/02 00:37:44;;;;;;;;;20.50;20.50;;;;;;;;5140704;27;11399;-72
2022/01/02 00:40:10;;;;;;;;;24.00;20.50;;;;;;;;5140498;27;12232;-72
2022/01/02 00:42:37;;;;;;;;;19.75;17.75;;;;;;;;5121869;27;9215;-72
2022/01/02 00:45:04;;;;;;;;;25.75;21.00;;;;;;;;5140468;27;13351;-71
2022/01/02 00:47:33;;;;;;;;;19.50;18.75;;;;;;;;5140153;27;13348;-71
2022/01/02 00:50:01;;;;;;;;;20.75;18.75;;;;;;;;5140309;27;13359;-72
2022/01/02 00:52:27;;;;;;;;;20.25;17.25;;;;;;;;5139722;27;12428;-71
2022/01/02 00:54:54;;;;;;;;;25.00;16.75;;;;;;;;5140007;27;12467;-72
2022/01/02 00:57:23;;;;;;;;;19.00;18.00;;;;;;;;5121244;27;14284;-73
2022/01/02 00:59:48;;;;;;;;;26.75;22.00;;;;;;;;5121221;27;13957;-73
2022/01/02 01:02:18;;;;;;;;;20.75;20.00;;;;;;;;5121676;27;12571;-72
2022/01/02 01:04:44;;;;;;;;;22.75;20.75;;;;;;;;5121656;27;10473;-72
2022/01/02 01:07:09;;;;;;;;;21.75;21.75;;;;;;;;5139978;27;11570;-73
2022/01/02 01:09:34;;;;;;;;;24.00;20.25;;;;;;;;5140379;27;8790;-71
2022/01/02 01:12:01;;;;;;;;;24.25;20.00;;;;;;;;5139595;27;10926;-73
2022/01/02 01:14:27;;;;;;;;;20.50;19.00;;;;;;;;5139126;27;8818;-72
2022/01/02 01:16:53;;;;;;;;;22.75;16.25;;;;;;;;5144005;27;11923;-72
2022/01/02 01:19:18;;;;;;;;;21.25;19.25;;;;;;;;5143834;27;11886;-72
2022/01/02 01:21:43;;;;;;;;;23.00;20.00;;;;;;;;5143580;27;11278;-72
2022/01/02 01:24:09;;;;;;;;;17.00;16.50;;;;;;;;5143242;27;12659;-72
2022/01/02 01:26:34;;;;;;;;;25.25;19.75;;;;;;;;5143247;27;13335;-72
2022/01/02 01:29:00;;;;;;;;;24.50;18.25;;;;;;;;5143601;27;13247;-72
2022/01/02 01:31:25;;;;;;;;;21.75;18.25;;;;;;;;5143192;27;10349;-72
2022/01/02 01:33:50;;;;;;;;;24.00;20.00;;;;;;;;5143149;27;10253;-73
2022/01/02 01:36:16;;;;;;;;;21.00;19.75;;;;;;;;5142908;27;12288;-72
2022/01/02 01:38:41;;;;;;;;;19.00;18.25;;;;;;;;5143509;27;12194;-71
2022/01/02 01:41:11;;;;;;;;;15.00;15.00;;;;;;;;5143545;27;13519;-71
2022/01/02 01:43:51;;;;;;;;;22.50;18.00;;;;;;;;5142578;27;13124;-72
2022/01/02 01:46:17;;;;;;;;;20.25;19.75;;;;;;;;5143279;27;13368;-72
2022/01/02 01:48:48;;;;;;;;;21.75;19.75;;;;;;;;5143304;27;11705;-72
2022/01/02 01:51:14;;;;;;;;;18.50;15.50;;;;;;;;5143227;27;8834;-72
2022/01/02 01:53:39;;;;;;;;;19.25;15.75;;;;;;;;5141791;27;14421;-72
2022/01/02 01:56:04;;;;;;;;;18.75;14.75;;;;;;;;5142731;27;11445;-71
2022/01/02 01:58:30;;;;;;;;;21.00;19.25;;;;;;;;5142619;27;9676;-71
2022/01/02 02:00:55;;;;;;;;;20.75;18.50;;;;;;;;5142230;27;12242;-71
2022/01/02 02:03:20;;;;;;;;;20.75;19.50;;;;;;;;5142386;27;12005;-71
2022/01/02 02:05:45;;;;;;;;;21.25;17.75;;;;;;;;5142622;27;9494;-71
2022/01/02 02:08:11;;;;;;;;;24.00;19.75;;;;;;;;5142911;27;11721;-72
2022/01/02 02:10:40;;;;;;;;;16.50;15.25;;;;;;;;5143345;27;10628;-71
2022/01/02 02:13:06;;;;;;;;;20.25;19.25;;;;;;;;5142387;27;12442;-72
2022/01/02 02:15:31;;;;;;;;;21.25;18.00;;;;;;;;5142831;27;12691;-72
2022/01/02 02:17:57;;;;;;;;;23.25;19.00;;;;;;;;5142726;27;11417;-72
2022/01/02 02:20:24;;;;;;;;;21.00;19.50;;;;;;;;5142628;27;8817;-71
2022/01/02 02:22:52;;;;;;;;;20.00;18.25;;;;;;;;5142027;27;11691;-72
2022/01/02 02:25:19;;;;;;;;;18.50;17.00;;;;;;;;5142532;27;11666;-72
2022/01/02 02:27:54;;;;;;;;;22.25;15.50;;;;;;;;5141806;27;13293;-72
2022/01/02 02:30:20;;;;;;;;;25.00;19.00;;;;;;;;5122911;27;15357;-72
2022/01/02 02:32:46;;;;;;;;;16.75;16.50;;;;;;;;5142669;27;12610;-72
2022/01/02 02:35:12;;;;;;;;;26.25;24.00;;;;;;;;5141866;27;13201;-72
2022/01/02 02:37:40;;;;;;;;;22.25;20.25;;;;;;;;5142339;27;13237;-72
2022/01/02 02:40:06;;;;;;;;;22.00;19.50;;;;;;;;5142282;27;12580;-72
2022/01/02 02:42:43;;;;;;;;;24.00;23.25;;;;;;;;5141729;27;12863;-72
2022/01/02 02:50:55;;;;;;;;;19.50;19.00;;;;;;;;5141665;27;13465;-71
2022/01/02 02:53:20;;;;;;;;;18.00;15.25;;;;;;;;5141751;27;13359;-70
2022/01/02 02:55:48;;;;;;;;;17.00;15.00;;;;;;;;5141804;27;13241;-72
2022/01/02 03:01:00;;;;;;;;;22.75;20.00;;;;;;;;5141242;27;11468;-72
2022/01/02 03:03:25;;;;;;;;;19.25;18.50;;;;;;;;5142187;27;13300;-72
2022/01/02 03:05:51;;;;;;;;;20.00;18.75;;;;;;;;5142003;27;13345;-72
2022/01/02 03:08:17;;;;;;;;;20.00;19.25;;;;;;;;5141536;27;13548;-72
2022/01/02 03:10:42;;;;;;;;;18.25;16.25;;;;;;;;5141405;27;8889;-72
2022/01/02 03:13:07;;;;;;;;;20.00;17.50;;;;;;;;5141510;27;12342;-72
2022/01/02 03:15:33;;;;;;;;;22.50;20.50;;;;;;;;5141454;27;13886;-72
2022/01/02 03:17:58;;;;;;;;;21.00;17.00;;;;;;;;5141471;27;11396;-71
2022/01/02 03:20:23;;;;;;;;;21.25;17.25;;;;;;;;5141354;27;12150;-72
2022/01/02 03:22:48;;;;;;;;;18.50;17.25;;;;;;;;5140878;27;8825;-70
2022/01/02 03:25:14;;;;;;;;;18.75;17.75;;;;;;;;5122263;27;12157;-71
2022/01/02 03:27:40;;;;;;;;;21.50;19.00;;;;;;;;5141787;27;8805;-71
2022/01/02 03:30:06;;;;;;;;;17.25;16.25;;;;;;;;5141738;27;13346;-71
2022/01/02 03:32:32;;;;;;;;;15.50;15.00;;;;;;;;5140985;27;13324;-71
2022/01/02 03:34:57;;;;;;;;;20.75;18.00;;;;;;;;5140981;27;11503;-71
2022/01/02 03:37:25;;;;;;;;;26.50;16.75;;;;;;;;5140270;27;14089;-71
2022/01/02 08:43:40;;;;;;;;;31.33;25.67;;;;;;;;5082387;27;1962966;-76
2022/01/02 08:46:06;;;;;;;;;31.67;29.67;;;;;;;;5136296;27;22910;-76
2022/01/02 08:48:31;;;;;;;;;21.00;16.33;;;;;;;;5135944;27;9572;-75
2022/01/02 08:50:57;;;;;;;;;30.33;24.00;;;;;;;;5134813;27;14412;-77
2022/01/02 08:53:22;;;;;;;;;22.67;20.33;;;;;;;;5134752;27;13396;-86
2022/01/02 08:55:47;;;;;;;;;26.00;23.00;;;;;;;;5133387;27;13521;-77
2022/01/02 08:58:13;;;;;;;;;25.67;21.00;;;;;;;;5118822;27;11389;-82
2022/01/02 09:00:38;;;;;;;;;28.67;25.00;;;;;;;;5137209;27;11467;-78
2022/01/02 09:03:04;;;;;;;;;28.33;25.33;;;;;;;;5136937;27;8813;-78
2022/01/02 09:05:30;;;;;;;;;30.33;27.00;;;;;;;;5137057;27;8776;-79
2022/01/02 09:07:55;;;;;;;;;24.33;22.33;;;;;;;;5137763;27;13430;-78
2022/01/02 09:10:21;;;;;;;;;38.33;28.00;;;;;;;;5144682;27;13272;-77
2022/01/02 09:12:47;;;;;;;;;32.33;27.00;;;;;;;;5144481;27;13278;-77
2022/01/02 09:15:12;;;;;;;;;25.67;25.67;;;;;;;;5127420;27;9978;-77
2022/01/02 09:17:37;;;;;;;;;29.00;24.00;;;;;;;;5146953;27;13545;-77
2022/01/02 09:20:04;;;;;;;;;27.33;23.33;;;;;;;;5144860;27;13030;-77
2022/01/02 09:22:29;;;;;;;;;28.67;23.00;;;;;;;;5146493;27;11612;-78
2022/01/02 09:24:54;;;;;;;;;31.67;29.67;;;;;;;;5144393;27;11471;-79
2022/01/02 09:27:20;;;;;;;;;24.67;21.00;;;;;;;;5147236;27;13752;-78
2022/01/02 09:29:45;;;;;;;;;23.00;22.33;;;;;;;;5144887;27;13194;-77
2022/01/02 09:32:10;;;;;;;;;30.67;24.00;;;;;;;;5146333;27;11589;-77
2022/01/02 09:34:36;;;;;;;;;27.67;23.67;;;;;;;;5148485;27;13217;-77
2022/01/02 09:37:03;;;;;;;;;29.50;27.25;;;;;;;;5145750;27;14465;-78
2022/01/02 09:39:29;;;;;;;;;36.75;29.25;;;;;;;;5150067;27;11722;-76
2022/01/02 09:41:55;;;;;;;;;30.67;27.67;;;;;;;;5153773;27;12336;-77
2022/01/02 09:44:20;;;;;;;;;24.67;22.67;;;;;;;;5152656;27;10952;-77
2022/01/02 09:46:47;;;;;;;;;29.00;24.50;;;;;;;;5131358;27;12952;-78
2022/01/02 09:49:12;;;;;;;;;29.67;24.00;;;;;;;;5129949;27;13704;-79
2022/01/02 09:51:37;;;;;;;;;26.75;25.25;;;;;;;;5139495;27;11483;-81
2022/01/02 09:54:03;;;;;;;;;28.50;24.75;;;;;;;;5129836;27;11400;-79
2022/01/02 09:56:28;;;;;;;;;24.25;23.00;;;;;;;;5139109;27;10801;-77
2022/01/02 09:58:53;;;;;;;;;30.00;27.75;;;;;;;;5123157;28;11501;-78
2022/01/02 10:01:20;;;;;;;;;31.75;24.50;;;;;;;;5120081;27;14854;-77
2022/01/02 10:03:50;;;;;;;;;31.50;25.25;;;;;;;;5143060;27;11703;-79
2022/01/02 10:06:16;;;;;;;;;32.67;25.33;;;;;;;;5142685;27;11504;-77
2022/01/02 10:08:41;;;;;;;;;35.00;26.33;;;;;;;;5143156;27;12225;-77
2022/01/02 10:11:17;;;;;;;;;33.67;29.67;;;;;;;;5143029;27;10365;-78
2022/01/02 10:13:45;;;;;;;;;30.75;24.75;;;;;;;;5134232;27;11630;-75
2022/01/02 10:16:26;;;;;;;;;34.00;28.00;;;;;;;;5132772;27;11500;-76
2022/01/02 10:18:52;;;;;;;;;30.00;27.00;;;;;;;;5130621;27;11548;-76
2022/01/02 10:21:31;;;;;;;;;29.50;27.75;;;;;;;;5132356;27;11463;-74
2022/01/02 10:24:15;;;;;;;;;32.25;24.75;;;;;;;;5131290;27;13309;-75
2022/01/02 10:26:42;;;;;;;;;31.00;29.75;;;;;;;;5132019;27;12361;-76
2022/01/02 10:29:13;;;;;;;;;29.25;28.00;;;;;;;;5131073;27;11460;-77
2022/01/02 10:31:39;;;;;;;;;37.50;27.00;;;;;;;;5130824;27;13629;-76
2022/01/02 10:34:04;;;;;;;;;36.75;31.75;;;;;;;;5112351;27;13595;-75
2022/01/02 10:36:31;;;;;;;;;29.50;26.25;;;;;;;;5131710;27;12224;-74
2022/01/02 10:39:22;;;;;;;;;33.50;27.25;;;;;;;;5130880;27;12421;-76
2022/01/02 10:41:49;;;;;;;;;35.50;31.75;;;;;;;;5128385;27;11567;-77
2022/01/02 10:44:18;;;;;;;;;33.75;29.00;;;;;;;;5132223;27;11494;-74
2022/01/02 10:47:03;;;;;;;;;28.25;28.00;;;;;;;;5131406;27;12324;-76
2022/01/02 10:49:47;;;;;;;;;37.25;32.00;;;;;;;;5132025;27;11556;-74
2022/01/02 10:52:23;;;;;;;;;39.75;31.25;;;;;;;;5132150;27;11501;-75
2022/01/02 10:54:49;;;;;;;;;30.50;28.75;;;;;;;;5131630;27;11578;-75
2022/01/02 10:57:14;;;;;;;;;32.00;30.75;;;;;;;;5129393;27;11495;-75
2022/01/02 10:59:40;;;;;;;;;29.75;29.75;;;;;;;;5112253;27;11598;-75
2022/01/02 11:02:05;;;;;;;;;29.00;26.50;;;;;;;;5131468;27;12606;-75
2022/01/02 11:04:32;;;;;;;;;34.50;30.50;;;;;;;;5129992;27;11708;-76
2022/01/02 11:07:02;;;;;;;;;30.50;25.75;;;;;;;;5130968;27;12536;-75
2022/01/02 11:09:28;;;;;;;;;38.75;30.75;;;;;;;;5134264;27;12532;-74
2022/01/02 11:11:53;;;;;;;;;41.50;34.50;;;;;;;;5141159;27;11562;-79
2022/01/02 11:14:20;;;;;;;;;30.75;30.00;;;;;;;;5129425;27;13256;-75
2022/01/02 11:16:45;;;;;;;;;32.50;31.25;;;;;;;;5131925;27;13333;-80
2022/01/02 11:19:11;;;;;;;;;31.75;29.50;;;;;;;;5129719;27;11640;-77
2022/01/02 11:21:38;;;;;;;;;34.00;32.00;;;;;;;;5131510;27;12286;-77
2022/01/02 11:24:12;;;;;;;;;29.75;24.50;;;;;;;;5130964;27;12279;-75
2022/01/02 11:26:40;;;;;;;;;30.25;26.75;;;;;;;;5127096;27;13528;-76
2022/01/02 11:29:06;;;;;;;;;32.75;29.00;;;;;;;;5112703;27;13656;-76
2022/01/02 11:31:31;;;;;;;;;31.25;29.00;;;;;;;;5129069;27;12205;-77
2022/01/02 11:33:57;;;;;;;;;27.50;26.00;;;;;;;;5112548;27;9153;-75
2022/01/02 11:36:23;;;;;;;;;29.50;24.75;;;;;;;;5137964;27;12469;-77
2022/01/02 11:38:57;;;;;;;;;33.25;27.00;;;;;;;;5140851;27;11564;-77
2022/01/02 11:41:38;;;;;;;;;31.50;29.25;;;;;;;;5111247;27;14030;-75
2022/01/02 11:44:05;;;;;;;;;36.25;27.75;;;;;;;;5130565;27;11471;-76
2022/01/02 11:46:36;;;;;;;;;28.50;25.25;;;;;;;;5128137;27;11506;-77
2022/01/02 11:49:05;;;;;;;;;32.50;26.25;;;;;;;;5125708;27;12290;-76
2022/01/02 11:51:53;;;;;;;;;30.75;29.00;;;;;;;;5128117;27;12261;-77
2022/01/02 11:54:31;;;;;;;;;33.75;28.50;;;;;;;;5130173;27;12018;-76
2022/01/02 11:57:01;;;;;;;;;30.00;26.00;;;;;;;;5126596;27;12548;-76
2022/01/02 11:59:38;;;;;;;;;28.25;23.50;;;;;;;;5127946;27;11450;-77
2022/01/02 12:02:30;;;;;;;;;27.25;25.00;;;;;;;;5128240;27;13472;-81
2022/01/02 12:05:12;;;;;;;;;27.50;23.50;;;;;;;;5129889;27;12006;-83
2022/01/02 12:07:45;;;;;;;;;35.00;29.00;;;;;;;;5129179;27;12140;-81
2022/01/02 12:12:56;;;;;;;;;35.00;30.50;;;;;;;;5128680;27;14484;-77
2022/01/02 12:15:41;;;;;;;;;33.00;29.75;;;;;;;;5127389;27;14477;-79
2022/01/02 12:18:07;;;;;;;;;32.50;27.25;;;;;;;;5108041;27;13265;-77
2022/01/02 12:20:51;;;;;;;;;38.25;31.25;;;;;;;;5109494;27;12744;-75
2022/01/02 12:23:31;;;;;;;;;26.50;26.25;;;;;;;;5129247;27;11723;-75
2022/01/02 12:26:18;;;;;;;;;27.00;26.25;;;;;;;;5140699;27;12853;-78
2022/01/02 12:28:47;;;;;;;;;30.75;27.50;;;;;;;;5139977;27;11513;-76
2022/01/02 12:31:16;;;;;;;;;27.25;26.75;;;;;;;;5140549;27;13378;-77
2022/01/02 12:33:41;;;;;;;;;31.50;29.75;;;;;;;;5140047;27;13454;-76
2022/01/02 12:36:13;;;;;;;;;33.00;29.75;;;;;;;;5140078;27;12498;-75
2022/01/02 12:38:45;;;;;;;;;37.25;29.75;;;;;;;;5138038;27;9616;-78
2022/01/02 14:17:36;;;;;;;;;46.67;39.67;;;;;;;;5212559;27;78793;-74
2022/01/02 14:20:03;;;;;;;;;47.67;37.00;;;;;;;;5198434;27;23070;-73
2022/01/02 14:22:29;;;;;;;;;32.00;29.00;;;;;;;;5179970;27;12052;-76
2022/01/02 14:24:58;;;;;;;;;44.33;35.67;;;;;;;;5199293;27;12268;-71
2022/01/02 14:27:26;;;;;;;;;38.25;33.25;;;;;;;;5199231;27;13993;-77
2022/01/02 14:29:52;;;;;;;;;34.75;28.75;;;;;;;;5179287;27;15507;-75
2022/01/02 14:32:17;;;;;;;;;34.50;31.00;;;;;;;;5178974;27;14106;-80
2022/01/02 14:34:43;;;;;;;;;31.75;27.50;;;;;;;;5198186;27;13296;-74
2022/01/02 14:37:09;;;;;;;;;32.00;30.25;;;;;;;;5197363;27;13289;-76
2022/01/02 14:39:34;;;;;;;;;33.50;29.25;;;;;;;;5159903;27;12626;-74
2022/01/02 14:41:59;;;;;;;;;34.00;26.25;;;;;;;;5177925;27;11636;-74
2022/01/02 14:44:25;;;;;;;;;29.75;24.00;;;;;;;;5177754;27;10880;-74
2022/01/02 14:46:51;;;;;;;;;30.75;27.00;;;;;;;;5177253;27;13794;-73
2022/01/02 14:49:16;;;;;;;;;32.00;31.50;;;;;;;;5158137;27;12450;-75
2022/01/02 14:51:42;;;;;;;;;52.67;41.33;;;;;;;;5177146;27;12168;-77
2022/01/02 14:54:08;;;;;;;;;37.50;34.00;;;;;;;;5177587;27;13808;-77
2022/01/02 14:56:33;;;;;;;;;33.75;31.25;;;;;;;;5177058;27;13535;-77
2022/01/02 14:58:59;;;;;;;;;31.75;29.50;;;;;;;;5177202;27;12550;-78
2022/01/02 15:01:25;;;;;;;;;35.50;32.00;;;;;;;;5176903;27;12258;-78
2022/01/02 15:03:50;;;;;;;;;33.00;29.50;;;;;;;;5177600;27;12680;-77
2022/01/02 15:06:16;;;;;;;;;34.50;28.75;;;;;;;;5178388;27;12245;-79
2022/01/02 15:08:41;;;;;;;;;27.75;25.75;;;;;;;;5180573;27;11380;-80
2022/01/02 15:11:07;;;;;;;;;29.00;24.25;;;;;;;;5180497;27;12431;-78
2022/01/02 15:13:32;;;;;;;;;29.75;27.25;;;;;;;;5180654;27;10353;-81
2022/01/02 15:15:57;;;;;;;;;28.50;28.50;;;;;;;;5178971;27;9581;-80
2022/01/02 15:18:23;;;;;;;;;32.75;29.75;;;;;;;;5176995;27;11879;-79
2022/01/02 15:20:48;;;;;;;;;27.00;24.75;;;;;;;;5177773;27;13254;-76
2022/01/02 15:23:13;;;;;;;;;28.75;26.75;;;;;;;;5177493;27;12190;-81
2022/01/02 15:25:39;;;;;;;;;33.75;30.00;;;;;;;;5178286;27;10356;-82
2022/01/02 15:28:04;;;;;;;;;37.75;32.25;;;;;;;;5167429;27;13512;-84
2022/01/02 15:35:39;;;;;;;;;37.75;31.75;;;;;;;;5454512;22;13264;-78
2022/01/02 15:38:05;;;;;;;;;29.75;27.50;;;;;;;;5060068;28;13496;-72
2022/01/02 15:40:31;;;;;;;;;24.25;24.25;;;;;;;;5060153;28;13233;-73
2022/01/02 15:42:59;;;;;;;;;25.75;22.75;;;;;;;;5060463;28;11789;-74
2022/01/02 15:45:25;;;;;;;;;27.00;25.50;;;;;;;;5060676;28;12249;-77
2022/01/02 15:47:50;;;;;;;;;28.00;26.67;;;;;;;;5060474;28;11562;-80
2022/01/02 15:50:17;;;;;;;;;26.75;23.50;;;;;;;;5060726;28;11387;-81
2022/01/02 15:52:42;;;;;;;;;27.50;24.75;;;;;;;;5059860;28;11991;-73
2022/01/02 15:55:08;;;;;;;;;24.50;19.50;;;;;;;;5059572;28;12485;-70
2022/01/02 15:57:33;;;;;;;;;24.50;18.75;;;;;;;;5059990;28;12532;-74
2022/01/02 15:59:59;;;;;;;;;27.25;22.00;;;;;;;;5060120;28;11460;-69
2022/01/02 16:02:25;;;;;;;;;18.25;14.00;;;;;;;;5059320;28;12348;-70
2022/01/02 16:04:50;;;;;;;;;30.50;23.00;;;;;;;;5060298;28;10624;-68
2022/01/02 16:07:15;;;;;;;;;22.00;20.00;;;;;;;;5058583;28;12381;-70
2022/01/02 16:09:40;;;;;;;;;21.00;20.50;;;;;;;;5058982;28;12210;-75
2022/01/02 16:12:06;;;;;;;;;30.50;29.50;;;;;;;;5058579;28;11819;-75
2022/01/02 16:14:32;;;;;;;;;25.00;22.50;;;;;;;;5060411;28;12734;-80
2022/01/02 16:16:58;;;;;;;;;20.50;17.25;;;;;;;;5061191;28;12347;-80
2022/01/02 16:19:23;;;;;;;;;17.75;12.75;;;;;;;;5060570;28;12822;-75
2022/01/02 16:21:50;;;;;;;;;16.50;12.25;;;;;;;;5039602;28;14384;-77
2022/01/02 16:24:16;;;;;;;;;18.50;14.50;;;;;;;;5042245;28;12775;-78
2022/01/02 16:26:42;;;;;;;;;15.00;13.25;;;;;;;;5059940;28;11704;-78
2022/01/02 16:29:07;;;;;;;;;15.75;12.00;;;;;;;;5059478;28;12189;-75
2022/01/02 16:31:33;;;;;;;;;14.75;12.25;;;;;;;;4995223;28;11743;-77
2022/01/02 16:33:58;;;;;;;;;15.50;12.75;;;;;;;;4999084;28;11381;-70
2022/01/02 16:36:24;;;;;;;;;10.00;9.25;;;;;;;;4991908;28;10655;-72
2022/01/02 16:38:50;;;;;;;;;11.50;11.50;;;;;;;;4993906;28;21551;-74
2022/01/02 16:41:16;;;;;;;;;12.00;10.00;;;;;;;;4998555;28;24579;-77
2022/01/02 16:43:42;;;;;;;;;14.25;11.00;;;;;;;;5000413;28;11564;-76
2022/01/02 16:46:10;;;;;;;;;17.00;14.00;;;;;;;;5000825;28;11680;-74
2022/01/02 16:48:35;;;;;;;;;19.00;13.25;;;;;;;;4998239;28;12632;-77
2022/01/02 16:51:01;;;;;;;;;11.25;9.75;;;;;;;;4999670;28;12303;-69
2022/01/02 16:53:26;;;;;;;;;13.00;9.50;;;;;;;;4999452;28;21394;-73
2022/01/02 16:55:51;;;;;;;;;13.00;10.50;;;;;;;;4998624;28;13703;-72
2022/01/02 16:58:17;;;;;;;;;13.00;10.50;;;;;;;;4999993;28;16438;-74
2022/01/02 17:00:42;;;;;;;;;13.75;11.00;;;;;;;;5000898;28;8875;-73
2022/01/02 17:03:07;;;;;;;;;13.50;12.50;;;;;;;;4998132;28;10493;-71
2022/01/02 17:05:33;;;;;;;;;17.50;13.00;;;;;;;;4997873;28;12378;-71
2022/01/02 17:07:58;;;;;;;;;11.50;11.50;;;;;;;;4999342;28;11345;-75
2022/01/02 17:10:24;;;;;;;;;12.75;10.75;;;;;;;;5000466;28;11355;-71
2022/01/02 17:12:49;;;;;;;;;20.00;14.00;;;;;;;;5000183;28;11523;-72
2022/01/02 17:15:16;;;;;;;;;27.25;19.75;;;;;;;;4998923;28;13445;-71
2022/01/02 17:17:43;;;;;;;;;16.50;14.75;;;;;;;;4998245;28;12735;-69
2022/01/02 17:20:09;;;;;;;;;15.75;14.75;;;;;;;;4997512;28;12461;-70
2022/01/02 17:22:36;;;;;;;;;14.75;13.00;;;;;;;;4997654;28;11555;-71
2022/01/02 17:25:01;;;;;;;;;19.00;15.00;;;;;;;;4998696;28;11639;-70
2022/01/02 17:27:30;;;;;;;;;20.00;16.50;;;;;;;;4999375;28;11535;-70
2022/01/02 17:29:55;;;;;;;;;20.50;16.75;;;;;;;;4997593;28;13783;-72
2022/01/02 17:32:21;;;;;;;;;17.00;13.75;;;;;;;;4996645;28;12822;-70
2022/01/02 17:34:46;;;;;;;;;15.75;13.25;;;;;;;;4997958;28;12192;-71
2022/01/02 17:37:11;;;;;;;;;21.00;15.75;;;;;;;;4998683;28;10450;-71
2022/01/02 17:39:37;;;;;;;;;21.00;17.75;;;;;;;;4998252;28;12456;-71
2022/01/02 17:42:03;;;;;;;;;17.00;16.00;;;;;;;;4999692;28;8776;-72
2022/01/02 17:44:29;;;;;;;;;15.25;14.25;;;;;;;;4997253;28;13869;-72
2022/01/02 17:46:55;;;;;;;;;18.50;16.75;;;;;;;;4989889;28;11446;-71
2022/01/02 17:49:21;;;;;;;;;20.75;17.00;;;;;;;;4998527;28;11586;-72
2022/01/02 17:51:47;;;;;;;;;16.75;14.00;;;;;;;;4998926;28;13281;-76
2022/01/02 17:54:13;;;;;;;;;18.50;17.50;;;;;;;;4981833;28;12912;-80
2022/01/02 17:56:38;;;;;;;;;25.00;15.50;;;;;;;;5000211;28;11796;-83
2022/01/02 17:59:05;;;;;;;;;23.75;20.25;;;;;;;;4999933;28;13375;-79
2022/01/02 18:01:31;;;;;;;;;18.75;16.75;;;;;;;;4998112;28;12507;-79
2022/01/02 18:03:57;;;;;;;;;20.25;16.00;;;;;;;;4999254;28;12358;-80
2022/01/02 18:06:22;;;;;;;;;26.25;22.25;;;;;;;;4998774;28;13258;-79
2022/01/02 18:08:53;;;;;;;;;21.25;20.50;;;;;;;;4997631;28;14443;-80
2022/01/02 18:11:18;;;;;;;;;18.50;17.25;;;;;;;;4998624;28;11488;-71
2022/01/02 18:13:43;;;;;;;;;14.75;14.75;;;;;;;;4997390;28;13270;-72
2022/01/02 18:16:08;;;;;;;;;16.00;14.25;;;;;;;;4998133;28;11419;-73
2022/01/02 18:18:34;;;;;;;;;22.50;22.00;;;;;;;;4996157;28;10452;-70
2022/01/02 18:20:59;;;;;;;;;21.00;15.50;;;;;;;;4996601;28;13746;-72
2022/01/02 18:23:24;;;;;;;;;17.75;17.50;;;;;;;;4992502;28;12397;-76
2022/01/02 18:25:50;;;;;;;;;25.00;20.25;;;;;;;;4996608;28;12197;-72
2022/01/02 18:28:16;;;;;;;;;22.00;17.50;;;;;;;;4997833;28;13412;-76
2022/01/02 18:30:42;;;;;;;;;22.00;19.75;;;;;;;;4995686;28;14310;-72
2022/01/02 18:33:08;;;;;;;;;27.25;22.25;;;;;;;;4991839;28;11282;-73
2022/01/02 18:35:33;;;;;;;;;22.50;22.25;;;;;;;;4997683;28;12553;-72
2022/01/02 18:37:59;;;;;;;;;23.75;19.75;;;;;;;;4999174;28;8931;-72
2022/01/02 18:40:24;;;;;;;;;22.75;18.50;;;;;;;;4998232;28;11644;-73
2022/01/02 18:42:49;;;;;;;;;16.25;16.25;;;;;;;;4996870;28;11744;-73
2022/01/02 18:45:15;;;;;;;;;18.00;18.00;;;;;;;;4998607;28;13439;-74
2022/01/02 18:47:40;;;;;;;;;18.25;17.50;;;;;;;;4998396;28;11852;-72
2022/01/02 18:50:08;;;;;;;;;20.00;18.00;;;;;;;;4997635;28;10337;-70
2022/01/02 18:52:33;;;;;;;;;25.00;21.75;;;;;;;;4999331;28;13314;-72
2022/01/02 18:54:59;;;;;;;;;25.00;22.00;;;;;;;;4997688;28;13588;-74
2022/01/02 18:57:24;;;;;;;;;33.50;28.00;;;;;;;;4998386;28;8893;-75
2022/01/02 18:59:49;;;;;;;;;25.50;23.00;;;;;;;;4998502;28;12572;-82
2022/01/02 19:02:18;;;;;;;;;25.75;20.50;;;;;;;;4998423;28;9535;-74
2022/01/02 19:04:44;;;;;;;;;24.50;20.25;;;;;;;;5001434;28;10447;-74
2022/01/02 19:07:09;;;;;;;;;19.25;17.75;;;;;;;;5001435;28;11636;-76
2022/01/02 19:09:35;;;;;;;;;34.75;26.75;;;;;;;;4993729;28;12369;-74
2022/01/02 19:12:00;;;;;;;;;12.50;9.50;;;;;;;;5000289;28;11388;-73
2022/01/02 19:14:26;;;;;;;;;20.25;12.75;;;;;;;;4998118;28;22815;-74
2022/01/02 19:16:51;;;;;;;;;17.25;17.00;;;;;;;;4998965;28;22527;-74
2022/01/02 19:19:17;;;;;;;;;22.50;17.75;;;;;;;;5000563;28;13404;-75
2022/01/02 19:21:42;;;;;;;;;21.75;18.00;;;;;;;;5000875;28;13426;-75
2022/01/02 19:24:09;;;;;;;;;22.75;19.00;;;;;;;;5000300;28;11381;-74
2022/01/02 19:26:35;;;;;;;;;16.50;14.00;;;;;;;;5000063;28;8944;-73
2022/01/02 19:29:01;;;;;;;;;18.00;17.00;;;;;;;;4999682;28;12333;-72
2022/01/02 19:31:26;;;;;;;;;27.50;21.50;;;;;;;;4999980;28;12857;-73
2022/01/02 19:33:52;;;;;;;;;29.00;26.00;;;;;;;;4999894;28;13672;-73
2022/01/02 19:36:17;;;;;;;;;20.75;16.00;;;;;;;;4999240;28;11843;-74
2022/01/02 19:38:42;;;;;;;;;24.50;20.00;;;;;;;;4999689;28;11812;-73
2022/01/02 19:41:08;;;;;;;;;20.75;19.00;;;;;;;;4998772;28;11396;-71
2022/01/02 19:43:33;;;;;;;;;21.25;18.00;;;;;;;;4995904;28;11407;-71
2022/01/02 19:45:58;;;;;;;;;22.25;18.25;;;;;;;;4997304;28;10031;-71
2022/01/02 19:48:24;;;;;;;;;18.00;15.25;;;;;;;;4999168;28;11438;-70
2022/01/02 19:50:49;;;;;;;;;18.25;16.50;;;;;;;;4999569;28;12474;-71
2022/01/02 19:53:14;;;;;;;;;18.25;16.00;;;;;;;;4999466;28;11067;-71
2022/01/02 19:55:40;;;;;;;;;16.75;14.00;;;;;;;;4999726;28;8816;-71
2022/01/02 19:58:05;;;;;;;;;19.00;17.50;;;;;;;;4999289;28;9722;-71
2022/01/02 20:00:30;;;;;;;;;13.50;13.25;;;;;;;;4999329;28;11504;-71
2022/01/02 20:02:56;;;;;;;;;21.50;17.75;;;;;;;;4999489;28;11608;-71
2022/01/02 20:05:21;;;;;;;;;16.75;14.00;;;;;;;;4998165;28;12425;-73
2022/01/02 20:07:46;;;;;;;;;17.00;15.00;;;;;;;;5000877;28;14312;-76
2022/01/02 20:10:13;;;;;;;;;21.75;14.50;;;;;;;;4998262;28;10663;-76
2022/01/02 20:12:38;;;;;;;;;24.50;16.50;;;;;;;;5000083;28;13337;-75
2022/01/02 20:15:05;;;;;;;;;16.00;14.00;;;;;;;;4997827;28;11689;-75
2022/01/02 20:17:31;;;;;;;;;21.50;17.00;;;;;;;;4994980;28;13465;-75
2022/01/02 20:19:56;;;;;;;;;16.50;14.00;;;;;;;;4997476;28;12506;-74
2022/01/02 20:22:21;;;;;;;;;18.75;14.00;;;;;;;;5000368;28;10844;-75
2022/01/02 20:24:47;;;;;;;;;31.75;27.00;;;;;;;;4998884;28;9517;-75
2022/01/02 20:27:12;;;;;;;;;21.50;15.00;;;;;;;;4998439;28;10621;-74
2022/01/02 20:29:38;;;;;;;;;17.50;15.00;;;;;;;;5000229;28;12395;-75
2022/01/02 20:32:04;;;;;;;;;21.75;14.00;;;;;;;;5000118;28;8797;-75
2022/01/02 20:34:30;;;;;;;;;19.75;15.50;;;;;;;;4998104;28;14437;-75
2022/01/02 20:36:55;;;;;;;;;18.50;16.50;;;;;;;;5000043;28;13278;-73
2022/01/02 20:39:21;;;;;;;;;25.00;20.25;;;;;;;;4999660;28;10597;-72
2022/01/02 20:41:46;;;;;;;;;18.75;17.00;;;;;;;;4999345;28;13462;-72
2022/01/02 20:44:11;;;;;;;;;22.00;19.00;;;;;;;;4999868;28;13469;-72
2022/01/02 20:46:37;;;;;;;;;27.75;21.00;;;;;;;;4999791;28;12688;-72
2022/01/02 20:49:03;;;;;;;;;25.00;20.00;;;;;;;;4998043;28;13221;-73
2022/01/02 20:51:28;;;;;;;;;25.25;20.50;;;;;;;;4998318;28;12257;-70
2022/01/02 20:53:54;;;;;;;;;21.00;21.00;;;;;;;;4999944;28;8814;-72
2022/01/02 20:56:19;;;;;;;;;17.00;14.25;;;;;;;;5000545;28;11396;-73
2022/01/02 20:58:44;;;;;;;;;22.25;18.00;;;;;;;;5000146;28;13392;-74
2022/01/02 21:01:10;;;;;;;;;23.00;19.00;;;;;;;;4998565;28;13637;-74
2022/01/02 21:03:35;;;;;;;;;22.25;18.50;;;;;;;;5000089;28;10338;-71
2022/01/02 21:06:01;;;;;;;;;17.00;17.00;;;;;;;;4999737;28;11430;-75
2022/01/02 21:08:26;;;;;;;;;21.25;19.25;;;;;;;;4999772;28;14332;-74
2022/01/02 21:10:53;;;;;;;;;14.50;14.00;;;;;;;;4999145;28;13609;-73
2022/01/02 21:13:19;;;;;;;;;17.00;15.00;;;;;;;;4993535;28;13306;-73